createdAt,value
2022-10-13T00:00:36.706Z,10.1
2022-10-13T00:01:36.697Z,10.1
2022-10-13T00:02:36.657Z,10.1
2022-10-13T00:03:36.657Z,10.1
2022-10-13T00:04:36.647Z,10
2022-10-13T00:05:36.652Z,10
2022-10-13T00:06:36.762Z,10.1
2022-10-13T00:07:36.740Z,10
2022-10-13T00:08:36.647Z,10
2022-10-13T00:09:36.758Z,10
2022-10-13T00:10:36.657Z,10
2022-10-13T00:11:36.680Z,10.1
2022-10-13T00:12:36.735Z,10.1
2022-10-13T00:13:36.679Z,10.1
2022-10-13T00:14:36.746Z,10.1
2022-10-13T00:15:36.770Z,10
2022-10-13T00:16:36.659Z,10.1
2022-10-13T00:17:36.663Z,10.2
2022-10-13T00:18:36.746Z,10.1
2022-10-13T00:19:36.692Z,10.1
2022-10-13T00:20:36.651Z,10.2
2022-10-13T00:21:36.718Z,10.2
2022-10-13T00:22:36.738Z,10.3
2022-10-13T00:23:36.667Z,10.3
2022-10-13T00:24:36.673Z,10.3
2022-10-13T00:25:36.656Z,10.3
2022-10-13T00:26:36.655Z,10.3
2022-10-13T00:27:36.652Z,10.3
2022-10-13T00:28:36.744Z,10.3
2022-10-13T00:29:36.772Z,10.4
2022-10-13T00:30:36.737Z,10.3
2022-10-13T00:31:36.656Z,10.2
2022-10-13T00:32:36.742Z,10.3
2022-10-13T00:33:36.718Z,10.2
2022-10-13T00:34:36.757Z,10.2
2022-10-13T00:35:36.853Z,10.2
2022-10-13T00:36:36.792Z,10.3
2022-10-13T00:37:36.742Z,10.2
2022-10-13T00:38:36.933Z,10.2
2022-10-13T00:39:36.650Z,10.2
2022-10-13T00:40:36.671Z,10.1
2022-10-13T00:41:36.761Z,10.1
2022-10-13T00:42:36.688Z,10.1
2022-10-13T00:43:36.764Z,10.2
2022-10-13T00:44:36.754Z,10.1
2022-10-13T00:45:36.783Z,10.2
2022-10-13T00:46:36.690Z,10.2
2022-10-13T00:47:36.690Z,10.1
2022-10-13T00:48:36.701Z,10.1
2022-10-13T00:49:36.714Z,10.1
2022-10-13T00:50:36.719Z,10.2
2022-10-13T00:51:36.647Z,10.1
2022-10-13T00:52:36.741Z,10.1
2022-10-13T00:53:36.779Z,10.2
2022-10-13T00:54:36.756Z,10.1
2022-10-13T00:55:36.873Z,10.1
2022-10-13T00:56:36.765Z,10.1
2022-10-13T00:57:36.781Z,10.1
2022-10-13T00:58:36.747Z,10.1
2022-10-13T00:59:36.778Z,10.1
2022-10-13T01:00:36.880Z,10.1
2022-10-13T01:01:36.810Z,10.1
2022-10-13T01:02:36.694Z,10.1
2022-10-13T01:03:36.714Z,10
2022-10-13T01:04:36.728Z,10.1
2022-10-13T01:05:36.707Z,10.1
2022-10-13T01:06:36.719Z,10.1
2022-10-13T01:07:36.732Z,10.1
2022-10-13T01:08:36.837Z,10
2022-10-13T01:09:36.740Z,10.1
2022-10-13T01:10:36.746Z,10.2
2022-10-13T01:11:36.767Z,10.2
2022-10-13T01:12:36.763Z,10.1
2022-10-13T01:13:36.704Z,10.1
2022-10-13T01:14:36.685Z,10.1
2022-10-13T01:15:36.776Z,10.1
2022-10-13T01:16:36.787Z,10.1
2022-10-13T01:17:36.669Z,10
2022-10-13T01:18:36.812Z,10.1
2022-10-13T01:19:36.719Z,10.1
2022-10-13T01:20:36.667Z,10.1
2022-10-13T01:21:36.823Z,10.2
2022-10-13T01:22:36.749Z,10.2
2022-10-13T01:23:36.847Z,10.2
2022-10-13T01:24:36.849Z,10.2
2022-10-13T01:25:36.758Z,10.2
2022-10-13T01:26:36.666Z,10.2
2022-10-13T01:27:36.756Z,10.1
2022-10-13T01:28:36.727Z,10.1
2022-10-13T01:29:36.659Z,10.1
2022-10-13T01:30:36.704Z,10.1
2022-10-13T01:31:36.791Z,10.1
2022-10-13T01:32:36.678Z,10
2022-10-13T01:33:36.745Z,10
2022-10-13T01:34:36.705Z,10.1
2022-10-13T01:35:36.726Z,10.1
2022-10-13T01:36:36.713Z,10.1
2022-10-13T01:37:36.655Z,10.1
2022-10-13T01:38:36.828Z,10.1
2022-10-13T01:39:36.849Z,10.1
2022-10-13T01:40:36.760Z,10.1
2022-10-13T01:41:36.730Z,10.1
2022-10-13T01:42:36.667Z,10.1
2022-10-13T01:43:36.673Z,10.1
2022-10-13T01:44:36.806Z,10.1
2022-10-13T01:45:36.675Z,10.1
2022-10-13T01:46:36.750Z,10.1
2022-10-13T01:47:36.791Z,10
2022-10-13T01:48:36.661Z,10.1
2022-10-13T01:49:36.709Z,10
2022-10-13T01:50:36.660Z,10
2022-10-13T01:51:36.655Z,10
2022-10-13T01:52:36.718Z,10
2022-10-13T01:53:36.667Z,10
2022-10-13T01:54:36.736Z,10
2022-10-13T01:55:36.784Z,10
2022-10-13T01:56:36.668Z,10
2022-10-13T01:57:36.756Z,10.1
2022-10-13T01:58:36.761Z,10.1
2022-10-13T01:59:36.763Z,10.2
2022-10-13T02:00:36.704Z,10.1
2022-10-13T02:01:36.792Z,10.1
2022-10-13T02:02:36.789Z,10
2022-10-13T02:03:36.665Z,10
2022-10-13T02:04:36.701Z,10
2022-10-13T02:05:36.701Z,10
2022-10-13T02:06:36.672Z,10
2022-10-13T02:07:36.650Z,10
2022-10-13T02:08:36.723Z,10
2022-10-13T02:09:36.744Z,10
2022-10-13T02:10:36.781Z,10
2022-10-13T02:11:36.741Z,9.9
2022-10-13T02:12:36.755Z,9.9
2022-10-13T02:13:36.761Z,9.9
2022-10-13T02:14:36.661Z,9.9
2022-10-13T02:15:36.786Z,10
2022-10-13T02:16:36.670Z,9.9
2022-10-13T02:17:36.785Z,9.9
2022-10-13T02:18:36.768Z,9.9
2022-10-13T02:19:36.710Z,9.9
2022-10-13T02:20:36.703Z,9.8
2022-10-13T02:21:36.717Z,9.8
2022-10-13T02:22:36.661Z,9.8
2022-10-13T02:23:36.666Z,9.8
2022-10-13T02:24:36.751Z,9.8
2022-10-13T02:25:36.840Z,9.9
2022-10-13T02:26:36.750Z,9.8
2022-10-13T02:27:36.748Z,9.8
2022-10-13T02:28:36.800Z,9.9
2022-10-13T02:29:36.758Z,9.8
2022-10-13T02:30:36.675Z,9.8
2022-10-13T02:31:36.667Z,9.9
2022-10-13T02:32:36.791Z,9.8
2022-10-13T02:33:36.900Z,9.9
2022-10-13T02:34:36.697Z,9.9
2022-10-13T02:35:36.755Z,9.8
2022-10-13T02:36:36.712Z,9.8
2022-10-13T02:37:36.715Z,9.9
2022-10-13T02:38:36.688Z,10
2022-10-13T02:39:36.735Z,10
2022-10-13T02:40:36.832Z,9.9
2022-10-13T02:41:36.849Z,9.8
2022-10-13T02:42:36.674Z,9.8
2022-10-13T02:43:36.753Z,9.9
2022-10-13T02:44:36.767Z,9.9
2022-10-13T02:45:36.760Z,9.8
2022-10-13T02:46:36.702Z,9.9
2022-10-13T02:47:36.680Z,9.8
2022-10-13T02:48:36.751Z,9.8
2022-10-13T02:49:36.793Z,9.8
2022-10-13T02:50:36.707Z,9.8
2022-10-13T02:51:40.187Z,9.8
2022-10-13T02:52:36.918Z,9.9
2022-10-13T02:53:36.980Z,9.9
2022-10-13T02:54:36.882Z,9.9
2022-10-13T02:55:37.032Z,9.9
2022-10-13T02:56:36.977Z,9.9
2022-10-13T02:57:36.672Z,9.9
2022-10-13T02:58:36.670Z,10
2022-10-13T02:59:36.773Z,10
2022-10-13T03:00:36.724Z,10
2022-10-13T03:01:36.672Z,10
2022-10-13T03:02:36.668Z,10.1
2022-10-13T03:03:36.741Z,10.1
2022-10-13T03:04:36.795Z,10.2
2022-10-13T03:05:36.689Z,10.1
2022-10-13T03:06:36.769Z,10.1
2022-10-13T03:07:36.684Z,10.1
2022-10-13T03:08:36.660Z,10.1
2022-10-13T03:09:36.749Z,10.2
2022-10-13T03:10:36.662Z,10.1
2022-10-13T03:11:36.756Z,10.1
2022-10-13T03:12:36.790Z,10.1
2022-10-13T03:13:36.656Z,10.2
2022-10-13T03:14:36.674Z,10.1
2022-10-13T03:15:36.860Z,10.1
2022-10-13T03:16:36.766Z,10.1
2022-10-13T03:17:36.797Z,10
2022-10-13T03:18:36.734Z,10.1
2022-10-13T03:19:36.786Z,10.1
2022-10-13T03:20:36.678Z,10.2
2022-10-13T03:21:36.662Z,10.1
2022-10-13T03:22:36.705Z,10.1
2022-10-13T03:23:36.721Z,10.1
2022-10-13T03:24:36.730Z,10.1
2022-10-13T03:25:36.658Z,10.1
2022-10-13T03:26:36.836Z,10.1
2022-10-13T03:27:36.836Z,10
2022-10-13T03:28:36.813Z,10.1
2022-10-13T03:29:36.852Z,10.1
2022-10-13T03:30:36.765Z,10.1
2022-10-13T03:31:36.761Z,10.1
2022-10-13T03:32:36.776Z,10.1
2022-10-13T03:33:36.675Z,10.1
2022-10-13T03:34:36.786Z,10.1
2022-10-13T03:35:37.134Z,10.1
2022-10-13T03:36:36.702Z,10.1
2022-10-13T03:37:36.667Z,10.1
2022-10-13T03:38:36.683Z,10
2022-10-13T03:39:36.718Z,10
2022-10-13T03:40:36.719Z,10
2022-10-13T03:41:36.740Z,10
2022-10-13T03:42:36.713Z,10
2022-10-13T03:43:36.742Z,10.1
2022-10-13T03:44:36.750Z,10.1
2022-10-13T03:45:36.775Z,10
2022-10-13T03:46:36.768Z,9.9
2022-10-13T03:47:36.669Z,9.9
2022-10-13T03:48:36.702Z,9.9
2022-10-13T03:49:36.764Z,9.8
2022-10-13T03:50:36.793Z,9.8
2022-10-13T03:51:36.691Z,9.8
2022-10-13T03:52:36.748Z,9.8
2022-10-13T03:53:36.704Z,9.8
2022-10-13T03:54:36.728Z,9.8
2022-10-13T03:55:36.714Z,9.9
2022-10-13T03:56:36.739Z,9.8
2022-10-13T03:57:36.757Z,9.7
2022-10-13T03:58:36.779Z,9.7
2022-10-13T03:59:37.214Z,9.8
2022-10-13T04:00:36.774Z,9.7
2022-10-13T04:01:36.812Z,9.7
2022-10-13T04:02:36.767Z,9.7
2022-10-13T04:03:36.675Z,9.8
2022-10-13T04:04:36.666Z,9.8
2022-10-13T04:05:36.793Z,9.7
2022-10-13T04:06:36.690Z,9.7
2022-10-13T04:07:36.702Z,9.7
2022-10-13T04:08:36.704Z,9.6
2022-10-13T04:09:36.824Z,9.6
2022-10-13T04:10:36.769Z,9.6
2022-10-13T04:11:36.734Z,9.6
2022-10-13T04:12:36.734Z,9.6
2022-10-13T04:13:36.847Z,9.5
2022-10-13T04:14:36.748Z,9.6
2022-10-13T04:15:36.748Z,9.6
2022-10-13T04:16:36.671Z,9.6
2022-10-13T04:17:36.668Z,9.6
2022-10-13T04:18:38.171Z,9.6
2022-10-13T04:19:36.804Z,9.6
2022-10-13T04:20:36.752Z,9.5
2022-10-13T04:21:36.838Z,9.5
2022-10-13T04:22:36.711Z,9.6
2022-10-13T04:23:36.818Z,9.5
2022-10-13T04:24:36.712Z,9.6
2022-10-13T04:25:36.709Z,9.5
2022-10-13T04:26:36.825Z,9.5
2022-10-13T04:27:36.738Z,9.5
2022-10-13T04:28:36.865Z,9.5
2022-10-13T04:29:36.785Z,9.5
2022-10-13T04:30:36.669Z,9.4
2022-10-13T04:31:36.757Z,9.5
2022-10-13T04:32:36.771Z,9.6
2022-10-13T04:33:36.765Z,9.6
2022-10-13T04:34:36.775Z,9.6
2022-10-13T04:35:36.712Z,9.6
2022-10-13T04:36:36.793Z,9.6
2022-10-13T04:37:38.064Z,9.6
2022-10-13T04:38:36.711Z,9.6
2022-10-13T04:39:36.818Z,9.6
2022-10-13T04:40:36.901Z,9.6
2022-10-13T04:41:36.727Z,9.6
2022-10-13T04:42:36.726Z,9.6
2022-10-13T04:43:36.777Z,9.6
2022-10-13T04:44:36.844Z,9.6
2022-10-13T04:45:36.758Z,9.6
2022-10-13T04:46:36.866Z,9.6
2022-10-13T04:47:37.205Z,9.6
2022-10-13T04:48:36.684Z,9.6
2022-10-13T04:49:36.670Z,9.5
2022-10-13T04:50:36.701Z,9.5
2022-10-13T04:51:36.780Z,9.5
2022-10-13T04:52:36.895Z,9.5
2022-10-13T04:53:36.700Z,9.5
2022-10-13T04:54:36.685Z,9.4
2022-10-13T04:55:36.688Z,9.5
2022-10-13T04:56:36.676Z,9.5
2022-10-13T04:57:36.827Z,9.5
2022-10-13T04:58:36.737Z,9.4
2022-10-13T04:59:36.837Z,9.4
2022-10-13T05:00:37.028Z,9.4
2022-10-13T05:01:36.755Z,9.5
2022-10-13T05:02:36.767Z,9.5
2022-10-13T05:03:36.768Z,9.5
2022-10-13T05:04:36.780Z,9.5
2022-10-13T05:05:36.674Z,9.5
2022-10-13T05:06:48.595Z,9.5
2022-10-13T05:07:36.752Z,9.6
2022-10-13T05:08:36.695Z,9.5
2022-10-13T05:09:36.681Z,9.6
2022-10-13T05:10:36.726Z,9.6
2022-10-13T05:11:36.714Z,9.6
2022-10-13T05:12:36.720Z,9.6
2022-10-13T05:13:36.737Z,9.5
2022-10-13T05:14:36.844Z,9.5
2022-10-13T05:15:36.849Z,9.5
2022-10-13T05:16:36.749Z,9.6
2022-10-13T05:17:36.864Z,9.6
2022-10-13T05:18:36.710Z,9.5
2022-10-13T05:19:36.777Z,9.5
2022-10-13T05:20:36.668Z,9.6
2022-10-13T05:21:36.711Z,9.5
2022-10-13T05:22:36.758Z,9.6
2022-10-13T05:23:36.790Z,9.6
2022-10-13T05:24:36.799Z,9.6
2022-10-13T05:25:36.665Z,9.6
2022-10-13T05:26:36.824Z,9.6
2022-10-13T05:27:37.018Z,9.7
2022-10-13T05:28:37.109Z,9.7
2022-10-13T05:29:36.763Z,9.8
2022-10-13T05:30:37.072Z,9.8
2022-10-13T05:31:36.741Z,9.7
2022-10-13T05:32:36.673Z,9.7
2022-10-13T05:33:36.668Z,9.8
2022-10-13T05:34:36.791Z,9.8
2022-10-13T05:35:36.683Z,9.8
2022-10-13T05:36:36.784Z,9.9
2022-10-13T05:37:36.788Z,9.9
2022-10-13T05:38:36.809Z,9.9
2022-10-13T05:39:36.698Z,9.8
2022-10-13T05:40:36.704Z,9.8
2022-10-13T05:41:36.724Z,9.8
2022-10-13T05:42:36.732Z,9.8
2022-10-13T05:43:36.686Z,9.8
2022-10-13T05:44:36.741Z,9.8
2022-10-13T05:45:36.755Z,9.8
2022-10-13T05:46:36.774Z,9.8
2022-10-13T05:47:36.765Z,9.8
2022-10-13T05:48:36.777Z,9.7
2022-10-13T05:49:36.766Z,9.7
2022-10-13T05:50:36.679Z,9.7
2022-10-13T05:51:36.779Z,9.7
2022-10-13T05:52:36.710Z,9.7
2022-10-13T05:53:36.796Z,9.7
2022-10-13T05:54:36.692Z,9.7
2022-10-13T05:55:36.705Z,9.7
2022-10-13T05:56:36.724Z,9.7
2022-10-13T05:57:36.786Z,9.6
2022-10-13T05:58:36.723Z,9.6
2022-10-13T05:59:36.731Z,9.6
2022-10-13T06:00:36.677Z,9.7
2022-10-13T06:01:36.865Z,9.7
2022-10-13T06:02:36.749Z,9.7
2022-10-13T06:03:36.769Z,9.7
2022-10-13T06:04:36.767Z,9.7
2022-10-13T06:05:36.777Z,9.7
2022-10-13T06:06:36.783Z,9.7
2022-10-13T06:07:36.691Z,9.7
2022-10-13T06:08:36.790Z,9.7
2022-10-13T06:09:36.802Z,9.7
2022-10-13T06:10:36.682Z,9.7
2022-10-13T06:11:36.914Z,9.7
2022-10-13T06:12:36.724Z,9.8
2022-10-13T06:13:36.684Z,9.8
2022-10-13T06:14:36.834Z,9.7
2022-10-13T06:15:36.738Z,9.7
2022-10-13T06:16:36.856Z,9.7
2022-10-13T06:17:36.854Z,9.7
2022-10-13T06:18:36.707Z,9.7
2022-10-13T06:19:36.779Z,9.7
2022-10-13T06:20:36.766Z,9.7
2022-10-13T06:21:36.788Z,9.8
2022-10-13T06:22:36.675Z,9.7
2022-10-13T06:23:36.740Z,9.6
2022-10-13T06:24:36.802Z,9.7
2022-10-13T06:25:36.674Z,9.7
2022-10-13T06:26:36.681Z,9.7
2022-10-13T06:27:36.693Z,9.7
2022-10-13T06:28:36.794Z,9.7
2022-10-13T06:29:36.742Z,9.7
2022-10-13T06:30:36.743Z,9.7
2022-10-13T06:31:36.853Z,9.8
2022-10-13T06:32:36.879Z,9.8
2022-10-13T06:33:36.758Z,9.8
2022-10-13T06:34:36.755Z,9.8
2022-10-13T06:35:36.674Z,9.8
2022-10-13T06:36:36.678Z,9.8
2022-10-13T06:37:36.685Z,9.9
2022-10-13T06:38:36.688Z,9.9
2022-10-13T06:39:36.755Z,9.9
2022-10-13T06:40:36.909Z,9.9
2022-10-13T06:41:36.797Z,9.9
2022-10-13T06:42:36.703Z,9.9
2022-10-13T06:43:40.364Z,10
2022-10-13T06:44:36.725Z,10
2022-10-13T06:45:36.731Z,10
2022-10-13T06:46:36.674Z,10
2022-10-13T06:47:36.852Z,10
2022-10-13T06:48:36.676Z,10
2022-10-13T06:49:36.761Z,10
2022-10-13T06:50:42.038Z,10
2022-10-13T06:51:36.684Z,10
2022-10-13T06:52:36.686Z,10.1
2022-10-13T06:53:36.789Z,10
2022-10-13T06:54:36.833Z,10.1
2022-10-13T06:55:36.898Z,10.2
2022-10-13T06:56:36.677Z,10.2
2022-10-13T06:57:36.918Z,10.2
2022-10-13T06:58:36.710Z,10.1
2022-10-13T06:59:36.728Z,10.1
2022-10-13T07:00:36.863Z,10.1
2022-10-13T07:01:41.232Z,10.3
2022-10-13T07:02:36.853Z,10.2
2022-10-13T07:03:36.845Z,10.2
2022-10-13T07:04:36.681Z,10.2
2022-10-13T07:05:36.759Z,10.3
2022-10-13T07:06:36.722Z,10.2
2022-10-13T07:07:36.773Z,10.3
2022-10-13T07:08:36.783Z,10.3
2022-10-13T07:09:36.684Z,10.3
2022-10-13T07:10:36.802Z,10.3
2022-10-13T07:11:36.707Z,10.4
2022-10-13T07:12:36.700Z,10.4
2022-10-13T07:13:37.655Z,10.4
2022-10-13T07:14:39.225Z,10.5
2022-10-13T07:15:36.731Z,10.5
2022-10-13T07:16:36.733Z,10.4
2022-10-13T07:17:36.772Z,10.4
2022-10-13T07:18:36.850Z,10.4
2022-10-13T07:19:36.755Z,10.5
2022-10-13T07:20:36.773Z,10.5
2022-10-13T07:21:36.793Z,10.4
2022-10-13T07:22:36.778Z,10.4
2022-10-13T07:23:36.783Z,10.6
2022-10-13T07:24:36.787Z,10.6
2022-10-13T07:25:36.822Z,10.6
2022-10-13T07:26:36.792Z,10.6
2022-10-13T07:27:36.672Z,10.6
2022-10-13T07:28:36.809Z,10.6
2022-10-13T07:29:36.674Z,10.5
2022-10-13T07:30:36.729Z,10.6
2022-10-13T07:31:36.734Z,10.7
2022-10-13T07:32:36.730Z,10.8
2022-10-13T07:33:36.848Z,10.8
2022-10-13T07:34:36.748Z,10.8
2022-10-13T07:35:36.736Z,10.8
2022-10-13T07:36:36.682Z,10.7
2022-10-13T07:37:36.697Z,10.8
2022-10-13T07:38:36.774Z,10.7
2022-10-13T07:39:36.783Z,10.7
2022-10-13T07:40:36.786Z,10.7
2022-10-13T07:41:36.813Z,10.8
2022-10-13T07:42:36.706Z,10.8
2022-10-13T07:43:36.695Z,10.8
2022-10-13T07:44:36.715Z,10.8
2022-10-13T07:45:36.723Z,10.8
2022-10-13T07:46:36.692Z,10.8
2022-10-13T07:47:36.680Z,10.9
2022-10-13T07:48:36.776Z,10.9
2022-10-13T07:49:36.757Z,10.9
2022-10-13T07:50:36.763Z,10.9
2022-10-13T07:51:36.760Z,11
2022-10-13T07:52:36.883Z,11
2022-10-13T07:53:36.790Z,11
2022-10-13T07:54:36.787Z,11.1
2022-10-13T07:55:36.779Z,11.2
2022-10-13T07:56:36.790Z,11.2
2022-10-13T07:57:36.707Z,11.3
2022-10-13T07:58:36.823Z,11.3
2022-10-13T07:59:36.674Z,11.3
2022-10-13T08:00:36.710Z,11.3
2022-10-13T08:01:36.775Z,11.4
2022-10-13T08:02:36.732Z,11.5
2022-10-13T08:04:36.851Z,11.5
2022-10-13T08:05:36.745Z,11.6
2022-10-13T08:06:36.752Z,11.6
2022-10-13T08:07:36.680Z,11.6
2022-10-13T08:08:36.684Z,11.8
2022-10-13T08:09:36.678Z,11.8
2022-10-13T08:10:36.792Z,11.8
2022-10-13T08:11:36.795Z,11.8
2022-10-13T08:12:36.796Z,11.9
2022-10-13T08:13:36.695Z,11.9
2022-10-13T08:14:36.860Z,11.9
2022-10-13T08:15:36.820Z,11.8
2022-10-13T08:16:36.723Z,11.9
2022-10-13T08:17:36.735Z,12
2022-10-13T08:18:36.736Z,12
2022-10-13T08:19:36.777Z,12.1
2022-10-13T08:20:43.414Z,12
2022-10-13T08:21:57.560Z,12.1
2022-10-13T08:22:36.768Z,12
2022-10-13T08:23:36.764Z,12
2022-10-13T08:24:36.805Z,12.1
2022-10-13T08:25:36.787Z,12
2022-10-13T08:26:36.901Z,12.1
2022-10-13T08:27:50.169Z,12.2
2022-10-13T08:28:36.760Z,12.2
2022-10-13T08:29:36.799Z,12.4
2022-10-13T08:30:36.859Z,12.4
2022-10-13T08:31:36.882Z,12.4
2022-10-13T08:32:36.767Z,12.4
2022-10-13T08:33:36.700Z,12.5
2022-10-13T08:34:36.769Z,12.5
2022-10-13T08:35:36.851Z,12.5
2022-10-13T08:36:36.753Z,12.6
2022-10-13T08:37:36.766Z,12.6
2022-10-13T08:38:36.685Z,12.6
2022-10-13T08:39:36.789Z,12.6
2022-10-13T08:40:36.779Z,12.7
2022-10-13T08:41:36.807Z,12.7
2022-10-13T08:42:36.803Z,12.8
2022-10-13T08:43:45.290Z,12.7
2022-10-13T08:45:41.342Z,12.8
2022-10-13T08:46:36.731Z,12.9
2022-10-13T08:47:36.693Z,12.9
2022-10-13T08:48:36.707Z,13
2022-10-13T08:49:36.768Z,13
2022-10-13T08:50:36.855Z,13
2022-10-13T08:51:36.765Z,13.1
2022-10-13T08:52:36.863Z,13.2
2022-10-13T08:53:36.769Z,13.3
2022-10-13T08:54:36.770Z,13.3
2022-10-13T08:55:36.891Z,13.4
2022-10-13T08:56:36.798Z,13.4
2022-10-13T08:57:36.764Z,13.5
2022-10-13T08:58:36.818Z,13.6
2022-10-13T08:59:36.699Z,13.7
2022-10-13T09:00:36.714Z,13.7
2022-10-13T09:01:36.759Z,13.7
2022-10-13T09:02:36.731Z,13.8
2022-10-13T09:03:36.728Z,13.9
2022-10-13T09:04:36.736Z,13.9
2022-10-13T09:05:36.845Z,13.9
2022-10-13T09:06:36.758Z,13.8
2022-10-13T09:07:36.753Z,13.9
2022-10-13T09:08:36.691Z,14
2022-10-13T09:09:36.773Z,14.1
2022-10-13T09:10:36.774Z,14.2
2022-10-13T09:11:36.782Z,14.4
2022-10-13T09:12:36.783Z,14.3
2022-10-13T09:13:36.825Z,14.4
2022-10-13T09:14:36.691Z,14.5
2022-10-13T09:15:36.920Z,14.5
2022-10-13T09:16:36.718Z,14.6
2022-10-13T09:17:36.720Z,14.6
2022-10-13T09:18:36.775Z,14.8
2022-10-13T09:19:36.823Z,14.6
2022-10-13T09:20:36.855Z,14.7
2022-10-13T09:21:36.787Z,14.8
2022-10-13T09:22:36.761Z,14.8
2022-10-13T09:23:39.575Z,14.9
2022-10-13T09:24:36.794Z,14.9
2022-10-13T09:25:36.691Z,15
2022-10-13T09:26:36.694Z,15
2022-10-13T09:27:36.788Z,14.9
2022-10-13T09:28:36.861Z,14.9
2022-10-13T09:29:36.724Z,14.9
2022-10-13T09:30:36.714Z,14.8
2022-10-13T09:31:36.703Z,14.8
2022-10-13T09:32:36.821Z,14.6
2022-10-13T09:33:36.724Z,14.8
2022-10-13T09:34:36.688Z,14.7
2022-10-13T09:35:36.780Z,14.6
2022-10-13T09:36:36.845Z,14.6
2022-10-13T09:37:36.697Z,14.7
2022-10-13T09:38:36.759Z,14.7
2022-10-13T09:39:36.764Z,14.6
2022-10-13T09:40:36.856Z,14.6
2022-10-13T09:41:36.778Z,14.7
2022-10-13T09:42:36.892Z,14.8
2022-10-13T09:43:36.763Z,14.8
2022-10-13T09:44:36.913Z,14.8
2022-10-13T09:45:36.689Z,14.7
2022-10-13T09:46:36.713Z,14.8
2022-10-13T09:47:36.704Z,15
2022-10-13T09:48:36.713Z,15.1
2022-10-13T09:49:36.733Z,15
2022-10-13T09:50:36.735Z,15
2022-10-13T09:51:36.851Z,14.9
2022-10-13T09:52:36.767Z,14.9
2022-10-13T09:53:36.689Z,15
2022-10-13T09:54:36.682Z,15.1
2022-10-13T09:55:36.879Z,15.1
2022-10-13T09:56:36.683Z,15
2022-10-13T09:57:36.788Z,15
2022-10-13T09:58:36.863Z,15.1
2022-10-13T09:59:36.810Z,15.2
2022-10-13T10:00:36.729Z,15.3
2022-10-13T10:01:36.705Z,15.2
2022-10-13T10:02:36.721Z,15.2
2022-10-13T10:03:36.793Z,15.2
2022-10-13T10:04:36.727Z,15.3
2022-10-13T10:05:36.739Z,15.3
2022-10-13T10:06:36.848Z,15.2
2022-10-13T10:07:36.821Z,15.4
2022-10-13T10:08:58.009Z,15.4
2022-10-13T10:09:36.768Z,15.5
2022-10-13T10:10:36.762Z,15.4
2022-10-13T10:11:36.695Z,15.4
2022-10-13T10:12:36.794Z,15.5
2022-10-13T10:13:36.793Z,15.7
2022-10-13T10:14:36.793Z,15.7
2022-10-13T10:15:36.896Z,15.8
2022-10-13T10:16:36.694Z,15.8
2022-10-13T10:17:36.691Z,15.8
2022-10-13T10:18:36.779Z,15.8
2022-10-13T10:19:36.699Z,15.7
2022-10-13T10:20:36.694Z,15.7
2022-10-13T10:21:36.760Z,15.7
2022-10-13T10:22:36.778Z,15.7
2022-10-13T10:23:36.699Z,15.7
2022-10-13T10:24:36.714Z,15.7
2022-10-13T10:25:36.700Z,15.7
2022-10-13T10:26:36.707Z,15.6
2022-10-13T10:27:38.953Z,15.7
2022-10-13T10:28:36.748Z,15.7
2022-10-13T10:29:36.805Z,15.8
2022-10-13T10:30:36.827Z,15.9
2022-10-13T10:31:36.738Z,16
2022-10-13T10:32:36.816Z,16
2022-10-13T10:33:36.699Z,16.1
2022-10-13T10:34:36.707Z,15.9
2022-10-13T10:35:36.792Z,16
2022-10-13T10:36:36.690Z,16
2022-10-13T10:37:36.852Z,16.1
2022-10-13T10:38:36.854Z,16.2
2022-10-13T10:39:36.759Z,16.4
2022-10-13T10:40:36.765Z,16.6
2022-10-13T10:41:36.694Z,16.7
2022-10-13T10:42:36.781Z,16.8
2022-10-13T10:43:36.701Z,16.8
2022-10-13T10:44:36.756Z,16.8
2022-10-13T10:45:36.757Z,16.7
2022-10-13T10:46:36.697Z,16.7
2022-10-13T10:47:36.705Z,16.7
2022-10-13T10:48:36.696Z,16.7
2022-10-13T10:49:36.706Z,16.8
2022-10-13T10:50:36.688Z,16.8
2022-10-13T10:51:36.696Z,17
2022-10-13T10:52:36.775Z,17.1
2022-10-13T10:53:36.804Z,17.2
2022-10-13T10:54:36.720Z,17.2
2022-10-13T10:55:36.812Z,17.2
2022-10-13T10:56:36.700Z,17.1
2022-10-13T10:57:36.828Z,17.1
2022-10-13T10:58:36.813Z,17
2022-10-13T10:59:36.699Z,17
2022-10-13T11:00:36.799Z,17
2022-10-13T11:01:36.966Z,17.2
2022-10-13T11:02:36.970Z,17.1
2022-10-13T11:03:36.957Z,17.2
2022-10-13T11:04:36.861Z,17.2
2022-10-13T11:05:36.936Z,17.2
2022-10-13T11:06:37.020Z,17.3
2022-10-13T11:07:36.710Z,17.4
2022-10-13T11:08:37.066Z,17.3
2022-10-13T11:09:36.745Z,17.4
2022-10-13T11:10:36.754Z,17.4
2022-10-13T11:11:37.983Z,17.4
2022-10-13T11:12:36.702Z,17.6
2022-10-13T11:13:36.698Z,17.8
2022-10-13T11:14:36.695Z,17.8
2022-10-13T11:15:36.799Z,18
2022-10-13T11:16:36.900Z,18.1
2022-10-13T11:17:36.711Z,18.2
2022-10-13T11:18:36.796Z,18.2
2022-10-13T11:19:36.705Z,18.1
2022-10-13T11:20:36.695Z,18.2
2022-10-13T11:21:36.788Z,18.3
2022-10-13T11:22:36.723Z,18.4
2022-10-13T11:23:36.773Z,18.6
2022-10-13T11:24:36.801Z,18.8
2022-10-13T11:25:36.700Z,18.9
2022-10-13T11:26:36.704Z,19
2022-10-13T11:27:36.700Z,19.2
2022-10-13T11:28:36.748Z,19.3
2022-10-13T11:29:36.712Z,19.5
2022-10-13T11:30:36.707Z,19.5
2022-10-13T11:31:36.802Z,19.3
2022-10-13T11:32:36.705Z,19.1
2022-10-13T11:33:36.735Z,18.8
2022-10-13T11:34:36.738Z,18.8
2022-10-13T11:35:36.711Z,18.9
2022-10-13T11:36:36.704Z,18.8
2022-10-13T11:37:36.712Z,18.5
2022-10-13T11:38:36.813Z,18.5
2022-10-13T11:39:36.842Z,18.5
2022-10-13T11:40:36.716Z,18.3
2022-10-13T11:41:36.782Z,17.7
2022-10-13T11:42:36.730Z,17.8
2022-10-13T11:43:36.722Z,17.9
2022-10-13T11:44:36.786Z,17.7
2022-10-13T11:45:36.715Z,17.6
2022-10-13T11:46:36.800Z,18
2022-10-13T11:47:36.822Z,17.8
2022-10-13T11:48:36.703Z,17.7
2022-10-13T11:49:36.715Z,17.8
2022-10-13T11:50:36.709Z,17.6
2022-10-13T11:51:36.698Z,17.8
2022-10-13T11:52:36.718Z,17.9
2022-10-13T11:53:36.706Z,18
2022-10-13T11:54:36.792Z,18
2022-10-13T11:55:36.708Z,18.1
2022-10-13T11:56:39.665Z,18
2022-10-13T11:57:36.757Z,18.1
2022-10-13T11:58:36.788Z,18.2
2022-10-13T11:59:36.725Z,18.2
2022-10-13T12:00:36.776Z,18.2
2022-10-13T12:01:36.892Z,18.1
2022-10-13T12:02:36.908Z,18.1
2022-10-13T12:03:36.719Z,18
2022-10-13T12:04:36.832Z,18.2
2022-10-13T12:05:36.702Z,18.3
2022-10-13T12:06:36.713Z,18.3
2022-10-13T12:07:36.726Z,18.3
2022-10-13T12:08:36.742Z,18.2
2022-10-13T12:09:36.841Z,18.1
2022-10-13T12:10:36.850Z,18.2
2022-10-13T12:11:36.883Z,18.2
2022-10-13T12:12:36.874Z,18.3
2022-10-13T12:13:36.819Z,18.3
2022-10-13T12:14:39.994Z,18
2022-10-13T12:15:36.876Z,18.1
2022-10-13T12:16:36.934Z,18
2022-10-13T12:17:36.967Z,17.9
2022-10-13T12:18:36.879Z,17.8
2022-10-13T12:19:36.935Z,17.9
2022-10-13T12:20:37.028Z,17.8
2022-10-13T12:21:36.978Z,17.9
2022-10-13T12:22:40.309Z,17.7
2022-10-13T12:23:37.086Z,17.5
2022-10-13T12:24:37.041Z,17.4
2022-10-13T12:25:37.132Z,17.2
2022-10-13T12:26:36.723Z,17.2
2022-10-13T12:27:36.717Z,17.2
2022-10-13T12:28:36.846Z,17.1
2022-10-13T12:29:37.514Z,17.1
2022-10-13T12:30:36.725Z,17
2022-10-13T12:31:36.757Z,17.1
2022-10-13T12:32:36.831Z,17.1
2022-10-13T12:33:36.906Z,17.1
2022-10-13T12:34:36.805Z,17.2
2022-10-13T12:35:37.052Z,17.2
2022-10-13T12:36:36.716Z,17.2
2022-10-13T12:37:36.735Z,17.2
2022-10-13T12:38:36.742Z,17.1
2022-10-13T12:39:36.708Z,17
2022-10-13T12:40:36.791Z,16.7
2022-10-13T12:41:36.948Z,16.6
2022-10-13T12:42:36.711Z,16.5
2022-10-13T12:43:36.710Z,16.4
2022-10-13T12:44:36.761Z,16.3
2022-10-13T12:45:36.768Z,16.3
2022-10-13T12:46:36.787Z,16.3
2022-10-13T12:47:36.792Z,16.3
2022-10-13T12:48:36.907Z,16.3
2022-10-13T12:49:36.796Z,16.4
2022-10-13T12:50:36.804Z,16.4
2022-10-13T12:51:36.875Z,16.4
2022-10-13T12:52:36.861Z,16.4
2022-10-13T12:53:36.893Z,16.4
2022-10-13T12:54:36.833Z,16.4
2022-10-13T12:55:36.975Z,16.4
2022-10-13T12:56:37.009Z,16.3
2022-10-13T12:57:37.011Z,16.3
2022-10-13T12:58:37.058Z,16.3
2022-10-13T12:59:36.762Z,16.4
2022-10-13T13:00:36.854Z,16.5
2022-10-13T13:01:37.134Z,16.5
2022-10-13T13:02:36.794Z,16.6
2022-10-13T13:03:36.896Z,16.7
2022-10-13T13:04:36.901Z,16.7
2022-10-13T13:05:36.717Z,16.8
2022-10-13T13:06:36.853Z,16.7
2022-10-13T13:07:36.819Z,16.7
2022-10-13T13:08:36.718Z,16.7
2022-10-13T13:09:36.729Z,16.8
2022-10-13T13:10:36.858Z,16.8
2022-10-13T13:11:36.842Z,16.9
2022-10-13T13:12:36.762Z,16.9
2022-10-13T13:13:36.752Z,16.8
2022-10-13T13:14:36.716Z,16.8
2022-10-13T13:15:36.706Z,16.8
2022-10-13T13:16:36.780Z,16.9
2022-10-13T13:17:57.153Z,16.9
2022-10-13T13:18:36.812Z,17.1
2022-10-13T13:19:36.898Z,17.1
2022-10-13T13:20:36.805Z,16.9
2022-10-13T13:21:36.741Z,16.9
2022-10-13T13:23:36.733Z,17
2022-10-13T13:24:40.135Z,17
2022-10-13T13:25:36.725Z,17
2022-10-13T13:26:36.840Z,17
2022-10-13T13:27:36.829Z,16.9
2022-10-13T13:28:36.806Z,16.7
2022-10-13T13:29:36.757Z,16.6
2022-10-13T13:30:36.761Z,16.5
2022-10-13T13:31:36.724Z,16.5
2022-10-13T13:32:36.722Z,16.4
2022-10-13T13:33:36.737Z,16.3
2022-10-13T13:34:36.893Z,16.3
2022-10-13T13:35:36.822Z,16.3